Professional Rodeo Cowboys Association
PRCA RAM WORLD STANDINGS
ProRodeo Gear Official Merchandise Of The PRCA

PRCA Stock Statistics

SEARCH BY:
Stock Rodeo Contestant Stock Contractor

Briar Dittmer

EVENT:
Unofficial results reflect placement at time of Web posting and can change.

SEASON BREAKDOWN

Season Attempts Qual Rides Re-rides Ride %
2019 51 40 0 78.43 %
2018 17 15 0 88.24 %
Totals 68 55 0 0.00 %

RODEO DETAIL

Date Location Rodeo SC Brand Ride Comments Stock Score Contestant Score
9/28/2019 Kansas City, MO American Royal Pro Rodeo UP 820 0.00 23.00 / 22.00 0.00 / 0.00
9/7/2019 Fort Madison, IA Tri-State Rodeo CC S37 69.50 20.50 / 21.00 16.00 / 12.00
9/6/2019 Poplar Bluff, MO Three Rivers Shrine Club Championship Rodeo GP 43 0.00 18.00 / 17.00 0.00 / 0.00
9/1/2019 Dayton, IA Dayton Championship Rodeo CB V72 72.50 18.00 / 19.00 16.00 / 19.50
8/31/2019 Vinita, OK Will Rogers Memorial Rodeo RH 01 63.50 22.00 / 21.50 10.00 / 10.00
8/24/2019 Ashland, MO Cattlemen Days Rodeo TH 07 0.00 21.50 / 22.50 0.00 / 0.00
8/16/2019 Depere, WI Brown County Fair Pro Rodeo TH Y22 78.00 19.00 / 21.00 20.00 / 18.00
8/15/2019 Mauston, WI Juneau County Fair Pro Rodeo TH N34 75.00 18.00 / 18.50 18.00 / 20.50
8/10/2019 Sioux Falls, SD Sioux Empire Fair Rodeo KR 414 72.00 20.00 / 20.00 16.00 / 16.00
8/9/2019 Ladysmith, WI Rusk County Rodeo BA 6A8 73.00 20.00 / 20.00 16.00 / 17.00
8/8/2019 Marshall, MN Lyon County Fair PRCA Rodeo BA J2 78.00 20.00 / 20.00 19.00 / 19.00
8/7/2019 Sikeston, MO Sikeston Jaycee Bootheel Rodeo CB P30 79.00 20.00 / 19.00 21.00 / 19.00
8/4/2019 Dodge City, KS Dodge City Roundup Rodeo SS J19 0.00 22.50 / 22.00 0.00 / 0.00
8/3/2019 Dodge City, KS Dodge City Roundup Rodeo RG 101 77.00 21.00 / 21.00 16.00 / 19.00
8/2/2019 Carson, IA Carson Community Rodeo TH M15 74.00 19.00 / 18.00 18.00 / 19.00
8/1/2019 Sidney, IA Iowa s Championship Rodeo CB W23 75.00 21.00 / 20.00 16.00 / 18.00
7/24/2019 Deadwood, SD Deadwood Days Of 76 Rodeo BH 118 69.00 20.00 / 21.00 14.00 / 14.00
7/20/2019 Iron River, MI Upper Peninsula Championship Rodeo TH 039 71.00 20.00 / 18.00 18.00 / 15.00
7/20/2019 Iron River, MI Upper Peninsula Championship Rodeo TH 032 77.00 20.00 / 18.00 21.00 / 18.00
7/19/2019 Iron River, MI Upper Peninsula Championship Rodeo TH 029 71.00 19.00 / 16.00 19.00 / 17.00
7/18/2019 Mitchell, SD Corn Palace Stampede Rodeo SU 397 79.50 20.00 / 18.00 21.50 / 20.00
7/6/2019 Galena, IL Shenandoah Pro Rodeo TH 5 87.00 21.00 / 22.00 22.00 / 22.00
7/5/2019 Manawa, WI Mid-Western Rodeo TH J21 74.00 20.00 / 20.00 16.00 / 18.00
7/4/2019 Killdeer, ND Killdeer Mountain Roundup PRCA Rodeo CP C43 71.50 18.00 / 19.00 17.00 / 17.50
7/3/2019 Mandan, ND Mandan Rodeo Days DK 221 73.00 17.00 / 19.00 20.00 / 17.00
Page of 3
Per Page
 
 
 
PRCA Sponsors

MGM Grand Polaris Ranger Cinch Jeans Bloomer Trailers Gold Buckle Beer Outlaw Equine

Copyright © 2019 Professional Rodeo Cowboys Association. All rights reserved. No portion of ProRodeo.com may be duplicated, redistributed or manipulated in any form. By accessing any information beyond this page, you agree to abide by the Terms of Use.


PRCA Wrangler National Finals Rodeo Wrangler ProRodeo Tour Finale Presented by Justin Boots Xtreme Bulls RAM National Circuit Finals Rodeo ProRodeo Gear ProRodeo Tour World Standings Tour Standings PRCA Rodeo Schedule Rodeo Results Facebook Twitter Instagram YouTube Mobile App ProRodeoTv.Com